sensor_id;sensor_type;location;lat;lon;timestamp;pressure;altitude;pressure_sealevel;temperature;humidity
6433;BME280;3249;42.690;23.260;2022-08-05T00:02:08;94612.22;;;18.48;100.00
6433;BME280;3249;42.690;23.260;2022-08-05T00:04:33;94604.31;;;18.33;100.00
6433;BME280;3249;42.690;23.260;2022-08-05T00:06:59;94609.44;;;18.13;100.00
6433;BME280;3249;42.690;23.260;2022-08-05T00:09:24;94573.91;;;17.86;100.00
6433;BME280;3249;42.690;23.260;2022-08-05T00:11:50;94604.19;;;18.02;100.00
6433;BME280;3249;42.690;23.260;2022-08-05T00:14:17;94603.78;;;18.31;100.00
6433;BME280;3249;42.690;23.260;2022-08-05T00:16:43;94599.66;;;18.35;100.00
6433;BME280;3249;42.690;23.260;2022-08-05T00:19:09;94591.63;;;18.46;100.00
6433;BME280;3249;42.690;23.260;2022-08-05T00:21:34;94600.25;;;18.52;100.00
6433;BME280;3249;42.690;23.260;2022-08-05T00:24:00;94587.50;;;18.60;100.00
6433;BME280;3249;42.690;23.260;2022-08-05T00:26:26;94593.72;;;18.59;100.00
6433;BME280;3249;42.690;23.260;2022-08-05T00:28:51;94604.19;;;18.79;100.00
6433;BME280;3249;42.690;23.260;2022-08-05T00:31:17;94606.25;;;18.67;100.00
6433;BME280;3249;42.690;23.260;2022-08-05T00:33:42;94583.03;;;18.51;100.00
6433;BME280;3249;42.690;23.260;2022-08-05T00:36:08;94594.56;;;18.70;100.00
6433;BME280;3249;42.690;23.260;2022-08-05T00:38:34;94579.41;;;18.72;100.00
6433;BME280;3249;42.690;23.260;2022-08-05T00:41:00;94597.16;;;18.70;100.00
6433;BME280;3249;42.690;23.260;2022-08-05T00:43:25;94585.09;;;18.39;100.00
6433;BME280;3249;42.690;23.260;2022-08-05T00:45:51;94592.56;;;18.30;100.00
6433;BME280;3249;42.690;23.260;2022-08-05T00:48:19;94581.56;;;18.08;100.00
6433;BME280;3249;42.690;23.260;2022-08-05T00:50:47;94584.66;;;18.00;100.00
6433;BME280;3249;42.690;23.260;2022-08-05T00:53:14;94587.00;;;18.07;100.00
6433;BME280;3249;42.690;23.260;2022-08-05T00:55:41;94576.09;;;18.15;100.00
6433;BME280;3249;42.690;23.260;2022-08-05T00:58:07;94580.81;;;18.23;100.00
6433;BME280;3249;42.690;23.260;2022-08-05T01:00:33;94580.03;;;18.22;100.00
6433;BME280;3249;42.690;23.260;2022-08-05T01:02:58;94580.84;;;18.28;100.00
6433;BME280;3249;42.690;23.260;2022-08-05T01:05:24;94579.94;;;18.02;100.00
6433;BME280;3249;42.690;23.260;2022-08-05T01:07:50;94575.88;;;17.69;100.00
6433;BME280;3249;42.690;23.260;2022-08-05T01:10:19;94585.56;;;17.79;100.00
6433;BME280;3249;42.690;23.260;2022-08-05T01:12:51;94592.41;;;17.95;100.00
6433;BME280;3249;42.690;23.260;2022-08-05T01:15:21;94588.03;;;18.05;100.00
6433;BME280;3249;42.690;23.260;2022-08-05T01:17:54;94578.41;;;18.06;100.00
6433;BME280;3249;42.690;23.260;2022-08-05T01:24:22;94592.63;;;17.83;100.00
6433;BME280;3249;42.690;23.260;2022-08-05T01:29:18;94581.22;;;17.94;100.00
6433;BME280;3249;42.690;23.260;2022-08-05T01:31:50;94585.75;;;17.67;100.00
6433;BME280;3249;42.690;23.260;2022-08-05T01:34:56;94594.16;;;17.79;100.00
6433;BME280;3249;42.690;23.260;2022-08-05T01:37:36;94596.78;;;17.79;100.00
6433;BME280;3249;42.690;23.260;2022-08-05T01:40:05;94596.56;;;17.49;100.00
6433;BME280;3249;42.690;23.260;2022-08-05T01:42:32;94584.69;;;17.58;100.00
6433;BME280;3249;42.690;23.260;2022-08-05T01:45:00;94591.25;;;17.76;100.00
6433;BME280;3249;42.690;23.260;2022-08-05T01:47:27;94597.28;;;17.76;100.00
6433;BME280;3249;42.690;23.260;2022-08-05T01:49:54;94592.84;;;17.77;100.00
6433;BME280;3249;42.690;23.260;2022-08-05T01:52:23;94592.59;;;17.78;100.00
6433;BME280;3249;42.690;23.260;2022-08-05T01:54:57;94594.66;;;17.71;100.00
6433;BME280;3249;42.690;23.260;2022-08-05T01:57:29;94594.66;;;17.76;100.00
6433;BME280;3249;42.690;23.260;2022-08-05T01:59:58;94597.84;;;17.83;100.00
6433;BME280;3249;42.690;23.260;2022-08-05T02:02:26;94605.66;;;17.83;100.00
6433;BME280;3249;42.690;23.260;2022-08-05T02:04:57;94591.56;;;17.79;100.00
6433;BME280;3249;42.690;23.260;2022-08-05T02:07:24;94596.44;;;17.71;100.00
6433;BME280;3249;42.690;23.260;2022-08-05T02:09:50;94571.22;;;17.40;100.00
6433;BME280;3249;42.690;23.260;2022-08-05T02:15:33;94604.56;;;17.74;100.00
6433;BME280;3249;42.690;23.260;2022-08-05T02:18:06;94600.91;;;17.75;100.00
6433;BME280;3249;42.690;23.260;2022-08-05T02:20:39;94594.16;;;17.74;100.00
6433;BME280;3249;42.690;23.260;2022-08-05T02:23:09;94588.16;;;17.79;100.00
6433;BME280;3249;42.690;23.260;2022-08-05T02:25:38;94593.09;;;17.70;100.00
6433;BME280;3249;42.690;23.260;2022-08-05T02:28:06;94593.66;;;17.82;100.00
6433;BME280;3249;42.690;23.260;2022-08-05T02:30:41;94590.78;;;17.79;100.00
6433;BME280;3249;42.690;23.260;2022-08-05T02:33:08;94568.28;;;17.63;100.00
6433;BME280;3249;42.690;23.260;2022-08-05T02:35:36;94593.44;;;17.42;100.00
6433;BME280;3249;42.690;23.260;2022-08-05T02:38:03;94587.13;;;17.07;100.00
6433;BME280;3249;42.690;23.260;2022-08-05T02:40:31;94582.94;;;17.01;100.00
6433;BME280;3249;42.690;23.260;2022-08-05T02:42:57;94588.03;;;16.91;100.00
6433;BME280;3249;42.690;23.260;2022-08-05T02:45:25;94587.38;;;17.05;100.00
6433;BME280;3249;42.690;23.260;2022-08-05T02:47:53;94586.41;;;17.16;100.00
6433;BME280;3249;42.690;23.260;2022-08-05T02:50:21;94585.22;;;17.29;100.00
6433;BME280;3249;42.690;23.260;2022-08-05T02:52:47;94583.03;;;16.84;100.00
6433;BME280;3249;42.690;23.260;2022-08-05T02:55:14;94579.81;;;16.72;100.00
6433;BME280;3249;42.690;23.260;2022-08-05T02:57:40;94578.09;;;16.56;100.00
6433;BME280;3249;42.690;23.260;2022-08-05T03:00:07;94561.84;;;16.44;100.00
6433;BME280;3249;42.690;23.260;2022-08-05T03:02:36;94578.88;;;16.83;100.00
6433;BME280;3249;42.690;23.260;2022-08-05T03:05:06;94574.00;;;16.65;100.00
6433;BME280;3249;42.690;23.260;2022-08-05T03:07:32;94571.94;;;16.41;100.00
6433;BME280;3249;42.690;23.260;2022-08-05T03:09:59;94579.41;;;16.59;100.00
6433;BME280;3249;42.690;23.260;2022-08-05T03:12:38;94585.97;;;16.93;100.00
6433;BME280;3249;42.690;23.260;2022-08-05T03:15:06;94589.50;;;17.13;100.00
6433;BME280;3249;42.690;23.260;2022-08-05T03:17:32;94588.44;;;17.09;100.00
6433;BME280;3249;42.690;23.260;2022-08-05T03:19:57;94582.22;;;16.84;100.00
6433;BME280;3249;42.690;23.260;2022-08-05T03:22:23;94585.56;;;17.06;100.00
6433;BME280;3249;42.690;23.260;2022-08-05T03:24:49;94591.38;;;17.18;100.00
6433;BME280;3249;42.690;23.260;2022-08-05T03:27:16;94595.53;;;17.19;100.00
6433;BME280;3249;42.690;23.260;2022-08-05T03:29:41;94582.91;;;17.32;100.00
6433;BME280;3249;42.690;23.260;2022-08-05T03:32:07;94582.38;;;17.30;100.00
6433;BME280;3249;42.690;23.260;2022-08-05T03:34:34;94591.63;;;17.16;100.00
6433;BME280;3249;42.690;23.260;2022-08-05T03:37:01;94588.66;;;17.03;100.00
6433;BME280;3249;42.690;23.260;2022-08-05T03:39:27;94574.63;;;16.77;100.00
6433;BME280;3249;42.690;23.260;2022-08-05T03:41:53;94583.91;;;16.95;100.00
6433;BME280;3249;42.690;23.260;2022-08-05T03:44:18;94580.63;;;17.09;100.00
6433;BME280;3249;42.690;23.260;2022-08-05T03:46:44;94586.69;;;17.20;100.00
6433;BME280;3249;42.690;23.260;2022-08-05T03:49:09;94589.44;;;17.40;100.00
6433;BME280;3249;42.690;23.260;2022-08-05T03:51:37;94591.09;;;17.46;100.00
6433;BME280;3249;42.690;23.260;2022-08-05T03:54:34;94588.63;;;17.71;100.00
6433;BME280;3249;42.690;23.260;2022-08-05T03:57:01;94592.66;;;17.93;100.00
6433;BME280;3249;42.690;23.260;2022-08-05T03:59:36;94599.69;;;18.45;100.00
6433;BME280;3249;42.690;23.260;2022-08-05T04:02:04;94596.50;;;18.33;100.00
6433;BME280;3249;42.690;23.260;2022-08-05T04:04:30;94602.13;;;18.76;100.00
6433;BME280;3249;42.690;23.260;2022-08-05T04:06:57;94591.69;;;18.91;100.00
6433;BME280;3249;42.690;23.260;2022-08-05T04:09:25;94608.19;;;19.02;100.00
6433;BME280;3249;42.690;23.260;2022-08-05T04:11:51;94600.50;;;18.55;100.00
6433;BME280;3249;42.690;23.260;2022-08-05T04:14:17;94604.78;;;18.20;100.00
6433;BME280;3249;42.690;23.260;2022-08-05T04:16:43;94601.06;;;18.05;100.00
6433;BME280;3249;42.690;23.260;2022-08-05T04:19:12;94582.09;;;18.15;100.00
6433;BME280;3249;42.690;23.260;2022-08-05T04:21:38;94603.59;;;18.47;100.00
6433;BME280;3249;42.690;23.260;2022-08-05T04:24:04;94590.66;;;18.77;100.00
6433;BME280;3249;42.690;23.260;2022-08-05T04:26:30;94595.63;;;19.09;100.00
6433;BME280;3249;42.690;23.260;2022-08-05T04:28:55;94596.41;;;19.19;100.00
6433;BME280;3249;42.690;23.260;2022-08-05T04:31:21;94601.69;;;19.39;100.00
6433;BME280;3249;42.690;23.260;2022-08-05T04:33:46;94589.41;;;19.35;100.00
6433;BME280;3249;42.690;23.260;2022-08-05T04:36:12;94599.81;;;19.20;100.00
6433;BME280;3249;42.690;23.260;2022-08-05T04:38:41;94592.50;;;18.97;100.00
6433;BME280;3249;42.690;23.260;2022-08-05T04:41:06;94601.38;;;19.16;100.00
6433;BME280;3249;42.690;23.260;2022-08-05T04:43:32;94594.09;;;19.18;100.00
6433;BME280;3249;42.690;23.260;2022-08-05T04:45:57;94599.81;;;19.05;100.00
6433;BME280;3249;42.690;23.260;2022-08-05T04:48:23;94588.03;;;18.77;100.00
6433;BME280;3249;42.690;23.260;2022-08-05T04:50:48;94602.66;;;18.78;100.00
6433;BME280;3249;42.690;23.260;2022-08-05T04:53:15;94593.75;;;18.74;100.00
6433;BME280;3249;42.690;23.260;2022-08-05T04:55:41;94589.84;;;18.72;100.00
6433;BME280;3249;42.690;23.260;2022-08-05T04:58:08;94593.00;;;18.74;100.00
6433;BME280;3249;42.690;23.260;2022-08-05T05:00:35;94591.69;;;18.86;100.00
6433;BME280;3249;42.690;23.260;2022-08-05T05:03:02;94590.66;;;19.02;100.00
6433;BME280;3249;42.690;23.260;2022-08-05T05:05:28;94590.69;;;19.22;100.00
6433;BME280;3249;42.690;23.260;2022-08-05T05:08:02;94595.91;;;19.12;100.00
6433;BME280;3249;42.690;23.260;2022-08-05T05:10:33;94588.34;;;19.16;100.00
6433;BME280;3249;42.690;23.260;2022-08-05T05:13:01;94592.50;;;19.12;100.00
6433;BME280;3249;42.690;23.260;2022-08-05T05:15:27;94581.03;;;19.03;100.00
6433;BME280;3249;42.690;23.260;2022-08-05T05:17:52;94599.06;;;19.29;100.00
6433;BME280;3249;42.690;23.260;2022-08-05T05:20:17;94592.25;;;19.58;100.00
6433;BME280;3249;42.690;23.260;2022-08-05T05:22:43;94596.16;;;19.71;100.00
6433;BME280;3249;42.690;23.260;2022-08-05T05:25:08;94595.66;;;19.64;100.00
6433;BME280;3249;42.690;23.260;2022-08-05T05:27:35;94590.69;;;19.72;100.00
6433;BME280;3249;42.690;23.260;2022-08-05T05:30:01;94596.09;;;20.01;100.00
6433;BME280;3249;42.690;23.260;2022-08-05T05:32:26;94594.03;;;19.93;100.00
6433;BME280;3249;42.690;23.260;2022-08-05T05:34:52;94600.75;;;20.24;100.00
6433;BME280;3249;42.690;23.260;2022-08-05T05:37:17;94591.84;;;20.30;100.00
6433;BME280;3249;42.690;23.260;2022-08-05T05:39:43;94596.91;;;20.60;100.00
6433;BME280;3249;42.690;23.260;2022-08-05T05:42:08;94595.13;;;20.55;100.00
6433;BME280;3249;42.690;23.260;2022-08-05T05:44:34;94594.75;;;20.72;100.00
6433;BME280;3249;42.690;23.260;2022-08-05T05:46:59;94600.84;;;20.62;100.00
6433;BME280;3249;42.690;23.260;2022-08-05T05:49:25;94596.09;;;20.69;100.00
6433;BME280;3249;42.690;23.260;2022-08-05T05:51:51;94590.53;;;20.76;100.00
6433;BME280;3249;42.690;23.260;2022-08-05T05:54:17;94586.84;;;20.82;100.00
6433;BME280;3249;42.690;23.260;2022-08-05T05:56:43;94597.28;;;20.87;100.00
6433;BME280;3249;42.690;23.260;2022-08-05T05:59:08;94592.22;;;21.05;100.00
6433;BME280;3249;42.690;23.260;2022-08-05T06:01:35;94600.22;;;21.24;100.00
6433;BME280;3249;42.690;23.260;2022-08-05T06:04:01;94600.09;;;21.39;100.00
6433;BME280;3249;42.690;23.260;2022-08-05T06:06:27;94604.31;;;21.35;100.00
6433;BME280;3249;42.690;23.260;2022-08-05T06:08:52;94601.44;;;21.65;100.00
6433;BME280;3249;42.690;23.260;2022-08-05T06:11:18;94602.03;;;21.57;100.00
6433;BME280;3249;42.690;23.260;2022-08-05T06:13:43;94605.16;;;21.30;100.00
6433;BME280;3249;42.690;23.260;2022-08-05T06:16:09;94610.84;;;21.37;100.00
6433;BME280;3249;42.690;23.260;2022-08-05T06:18:34;94601.84;;;21.48;100.00
6433;BME280;3249;42.690;23.260;2022-08-05T06:21:02;94608.84;;;21.58;100.00
6433;BME280;3249;42.690;23.260;2022-08-05T06:23:27;94609.28;;;21.98;100.00
6433;BME280;3249;42.690;23.260;2022-08-05T06:25:53;94621.66;;;22.17;100.00
6433;BME280;3249;42.690;23.260;2022-08-05T06:28:18;94615.06;;;22.19;100.00
6433;BME280;3249;42.690;23.260;2022-08-05T06:30:44;94609.16;;;22.08;100.00
6433;BME280;3249;42.690;23.260;2022-08-05T06:33:09;94580.03;;;21.86;100.00
6433;BME280;3249;42.690;23.260;2022-08-05T06:35:34;94609.72;;;22.06;100.00
6433;BME280;3249;42.690;23.260;2022-08-05T06:38:00;94577.78;;;22.22;100.00
6433;BME280;3249;42.690;23.260;2022-08-05T06:40:25;94611.66;;;22.42;100.00
6433;BME280;3249;42.690;23.260;2022-08-05T06:42:51;94605.91;;;22.40;100.00
6433;BME280;3249;42.690;23.260;2022-08-05T06:45:16;94600.22;;;22.33;100.00
6433;BME280;3249;42.690;23.260;2022-08-05T06:47:42;94609.38;;;22.36;100.00
6433;BME280;3249;42.690;23.260;2022-08-05T06:50:07;94609.41;;;22.59;100.00
6433;BME280;3249;42.690;23.260;2022-08-05T06:52:33;94614.03;;;22.86;100.00
6433;BME280;3249;42.690;23.260;2022-08-05T06:54:58;94607.34;;;22.93;100.00
6433;BME280;3249;42.690;23.260;2022-08-05T06:57:24;94602.75;;;23.22;99.18
6433;BME280;3249;42.690;23.260;2022-08-05T06:59:49;94610.34;;;23.56;98.18
6433;BME280;3249;42.690;23.260;2022-08-05T07:02:15;94589.44;;;23.64;95.66
6433;BME280;3249;42.690;23.260;2022-08-05T07:04:40;94609.06;;;23.85;96.68
6433;BME280;3249;42.690;23.260;2022-08-05T07:07:05;94610.16;;;23.52;100.00
6433;BME280;3249;42.690;23.260;2022-08-05T07:09:31;94618.66;;;23.63;100.00
6433;BME280;3249;42.690;23.260;2022-08-05T07:11:56;94617.75;;;23.86;96.85
6433;BME280;3249;42.690;23.260;2022-08-05T07:14:21;94616.94;;;23.85;94.98
6433;BME280;3249;42.690;23.260;2022-08-05T07:17:06;94622.31;;;23.80;93.55
6433;BME280;3249;42.690;23.260;2022-08-05T07:19:32;94615.84;;;24.05;91.46
6433;BME280;3249;42.690;23.260;2022-08-05T07:21:57;94617.81;;;24.40;88.39
6433;BME280;3249;42.690;23.260;2022-08-05T07:24:23;94624.25;;;24.47;86.92
6433;BME280;3249;42.690;23.260;2022-08-05T07:26:49;94618.19;;;24.33;86.96
6433;BME280;3249;42.690;23.260;2022-08-05T07:29:15;94620.94;;;24.55;85.45
6433;BME280;3249;42.690;23.260;2022-08-05T07:31:40;94611.09;;;24.74;83.23
6433;BME280;3249;42.690;23.260;2022-08-05T07:34:06;94623.22;;;24.97;83.77
6433;BME280;3249;42.690;23.260;2022-08-05T07:36:32;94618.19;;;24.87;84.55
6433;BME280;3249;42.690;23.260;2022-08-05T07:39:04;94620.75;;;25.28;81.11
6433;BME280;3249;42.690;23.260;2022-08-05T07:41:30;94597.56;;;25.25;77.75
6433;BME280;3249;42.690;23.260;2022-08-05T07:43:56;94626.13;;;25.67;75.10
6433;BME280;3249;42.690;23.260;2022-08-05T07:46:26;94614.72;;;25.80;74.58
6433;BME280;3249;42.690;23.260;2022-08-05T07:48:56;94624.59;;;25.97;72.82
6433;BME280;3249;42.690;23.260;2022-08-05T07:51:22;94624.22;;;26.12;72.66
6433;BME280;3249;42.690;23.260;2022-08-05T07:53:48;94608.69;;;25.35;73.21
6433;BME280;3249;42.690;23.260;2022-08-05T07:56:13;94600.13;;;25.16;75.54
6433;BME280;3249;42.690;23.260;2022-08-05T07:58:38;94620.06;;;25.66;73.79
6433;BME280;3249;42.690;23.260;2022-08-05T08:01:05;94615.91;;;25.74;73.27
6433;BME280;3249;42.690;23.260;2022-08-05T08:03:30;94628.19;;;26.01;69.56
6433;BME280;3249;42.690;23.260;2022-08-05T08:05:55;94628.41;;;26.13;69.05
6433;BME280;3249;42.690;23.260;2022-08-05T08:08:21;94615.06;;;26.09;69.27
6433;BME280;3249;42.690;23.260;2022-08-05T08:10:46;94607.63;;;26.20;67.69
6433;BME280;3249;42.690;23.260;2022-08-05T08:13:12;94618.34;;;26.15;68.24
6433;BME280;3249;42.690;23.260;2022-08-05T08:15:37;94618.03;;;25.85;67.44
6433;BME280;3249;42.690;23.260;2022-08-05T08:18:03;94614.81;;;25.66;67.74
6433;BME280;3249;42.690;23.260;2022-08-05T08:20:28;94614.53;;;25.76;69.13
6433;BME280;3249;42.690;23.260;2022-08-05T08:22:55;94618.28;;;25.98;69.39
6433;BME280;3249;42.690;23.260;2022-08-05T08:25:23;94604.34;;;25.83;69.30
6433;BME280;3249;42.690;23.260;2022-08-05T08:27:48;94607.78;;;25.92;67.91
6433;BME280;3249;42.690;23.260;2022-08-05T08:30:14;94616.03;;;25.91;68.11
6433;BME280;3249;42.690;23.260;2022-08-05T08:32:40;94612.69;;;25.99;69.91
6433;BME280;3249;42.690;23.260;2022-08-05T08:35:06;94613.28;;;25.96;70.54
6433;BME280;3249;42.690;23.260;2022-08-05T08:37:32;94602.44;;;25.98;70.62
6433;BME280;3249;42.690;23.260;2022-08-05T08:39:57;94603.91;;;26.21;67.77
6433;BME280;3249;42.690;23.260;2022-08-05T08:42:23;94617.22;;;26.46;63.65
6433;BME280;3249;42.690;23.260;2022-08-05T08:44:54;94611.22;;;26.63;62.97
6433;BME280;3249;42.690;23.260;2022-08-05T08:47:24;94605.97;;;26.80;62.83
6433;BME280;3249;42.690;23.260;2022-08-05T08:49:52;94609.56;;;26.92;62.01
6433;BME280;3249;42.690;23.260;2022-08-05T08:52:29;94612.06;;;26.97;58.13
6433;BME280;3249;42.690;23.260;2022-08-05T08:54:56;94616.31;;;27.24;57.57
6433;BME280;3249;42.690;23.260;2022-08-05T08:57:22;94605.44;;;27.34;58.72
6433;BME280;3249;42.690;23.260;2022-08-05T08:59:49;94603.56;;;27.26;59.33
6433;BME280;3249;42.690;23.260;2022-08-05T09:02:15;94603.50;;;26.92;58.55
6433;BME280;3249;42.690;23.260;2022-08-05T09:04:43;94604.94;;;26.98;56.71
6433;BME280;3249;42.690;23.260;2022-08-05T09:07:09;94602.31;;;27.32;59.57
6433;BME280;3249;42.690;23.260;2022-08-05T09:09:36;94600.44;;;27.49;55.08
6433;BME280;3249;42.690;23.260;2022-08-05T09:12:03;94604.66;;;27.25;51.52
6433;BME280;3249;42.690;23.260;2022-08-05T09:14:30;94585.50;;;27.11;51.52
6433;BME280;3249;42.690;23.260;2022-08-05T09:16:58;94595.31;;;27.27;48.46
6433;BME280;3249;42.690;23.260;2022-08-05T09:19:23;94594.03;;;27.59;47.87
6433;BME280;3249;42.690;23.260;2022-08-05T09:21:49;94586.88;;;27.85;45.27
6433;BME280;3249;42.690;23.260;2022-08-05T09:24:15;94595.69;;;27.97;46.99
6433;BME280;3249;42.690;23.260;2022-08-05T09:26:41;94571.81;;;28.14;46.36
6433;BME280;3249;42.690;23.260;2022-08-05T09:29:07;94587.03;;;28.17;46.23
6433;BME280;3249;42.690;23.260;2022-08-05T09:31:33;94570.34;;;27.88;47.33
6433;BME280;3249;42.690;23.260;2022-08-05T09:34:04;94588.75;;;27.59;43.92
6433;BME280;3249;42.690;23.260;2022-08-05T09:39:09;94572.34;;;27.99;42.18
6433;BME280;3249;42.690;23.260;2022-08-05T09:41:57;94580.34;;;28.20;42.31
6433;BME280;3249;42.690;23.260;2022-08-05T09:44:46;94570.97;;;27.85;43.14
6433;BME280;3249;42.690;23.260;2022-08-05T09:49:45;94565.22;;;28.20;42.76
6433;BME280;3249;42.690;23.260;2022-08-05T09:52:25;94557.91;;;28.17;41.83
6433;BME280;3249;42.690;23.260;2022-08-05T09:55:04;94566.75;;;28.30;42.50
6433;BME280;3249;42.690;23.260;2022-08-05T10:00:15;94565.38;;;28.61;41.38
6433;BME280;3249;42.690;23.260;2022-08-05T10:02:48;94570.59;;;28.49;41.34
6433;BME280;3249;42.690;23.260;2022-08-05T10:05:20;94560.31;;;28.48;42.85
6433;BME280;3249;42.690;23.260;2022-08-05T10:10:35;94552.16;;;28.53;43.37
6433;BME280;3249;42.690;23.260;2022-08-05T10:13:02;94552.44;;;28.60;42.51
6433;BME280;3249;42.690;23.260;2022-08-05T10:15:33;94552.66;;;28.96;40.65
6433;BME280;3249;42.690;23.260;2022-08-05T10:18:15;94541.63;;;29.14;40.37
6433;BME280;3249;42.690;23.260;2022-08-05T10:23:29;94538.03;;;29.31;39.13
6433;BME280;3249;42.690;23.260;2022-08-05T10:25:57;94544.97;;;29.56;38.33
6433;BME280;3249;42.690;23.260;2022-08-05T10:28:23;94551.63;;;29.62;37.86
6433;BME280;3249;42.690;23.260;2022-08-05T10:30:51;94553.31;;;29.67;38.21
6433;BME280;3249;42.690;23.260;2022-08-05T10:33:18;94541.44;;;29.31;38.42
6433;BME280;3249;42.690;23.260;2022-08-05T10:35:43;94545.75;;;29.24;39.73
6433;BME280;3249;42.690;23.260;2022-08-05T10:38:09;94554.38;;;28.71;39.76
6433;BME280;3249;42.690;23.260;2022-08-05T10:46:15;94534.41;;;28.74;40.94
6433;BME280;3249;42.690;23.260;2022-08-05T10:48:42;94533.75;;;28.77;39.23
6433;BME280;3249;42.690;23.260;2022-08-05T10:51:16;94523.69;;;29.11;38.40
6433;BME280;3249;42.690;23.260;2022-08-05T10:53:54;94527.69;;;28.97;40.14
6433;BME280;3249;42.690;23.260;2022-08-05T10:56:25;94518.88;;;28.84;39.56
6433;BME280;3249;42.690;23.260;2022-08-05T11:01:17;94513.91;;;28.83;39.00
6433;BME280;3249;42.690;23.260;2022-08-05T11:06:36;94520.53;;;28.97;39.05
6433;BME280;3249;42.690;23.260;2022-08-05T11:09:22;94513.78;;;29.20;38.04
6433;BME280;3249;42.690;23.260;2022-08-05T11:11:49;94517.28;;;29.12;38.75
6433;BME280;3249;42.690;23.260;2022-08-05T11:14:29;94523.59;;;28.99;37.69
6433;BME280;3249;42.690;23.260;2022-08-05T11:19:49;94502.75;;;29.30;36.98
6433;BME280;3249;42.690;23.260;2022-08-05T11:22:43;94515.34;;;29.21;37.86
6433;BME280;3249;42.690;23.260;2022-08-05T11:34:06;94504.88;;;28.84;39.09
6433;BME280;3249;42.690;23.260;2022-08-05T11:36:57;94497.63;;;29.13;37.96
6433;BME280;3249;42.690;23.260;2022-08-05T11:39:50;94501.22;;;29.62;36.61
6433;BME280;3249;42.690;23.260;2022-08-05T11:42:21;94494.91;;;29.67;36.71
6433;BME280;3249;42.690;23.260;2022-08-05T11:44:49;94490.13;;;30.17;36.57
6433;BME280;3249;42.690;23.260;2022-08-05T11:47:19;94490.50;;;30.55;35.32
6433;BME280;3249;42.690;23.260;2022-08-05T11:49:45;94495.72;;;30.51;36.22
6433;BME280;3249;42.690;23.260;2022-08-05T11:52:11;94496.81;;;30.62;34.80
6433;BME280;3249;42.690;23.260;2022-08-05T11:54:36;94486.25;;;30.38;35.66
6433;BME280;3249;42.690;23.260;2022-08-05T11:57:04;94498.41;;;30.03;35.67
6433;BME280;3249;42.690;23.260;2022-08-05T11:59:30;94502.03;;;29.99;36.39
6433;BME280;3249;42.690;23.260;2022-08-05T12:04:24;94476.94;;;30.20;35.18
6433;BME280;3249;42.690;23.260;2022-08-05T12:06:51;94491.22;;;30.16;35.13
6433;BME280;3249;42.690;23.260;2022-08-05T12:09:20;94476.13;;;29.96;35.15
6433;BME280;3249;42.690;23.260;2022-08-05T12:11:47;94476.94;;;30.32;34.65
6433;BME280;3249;42.690;23.260;2022-08-05T12:14:13;94482.88;;;30.41;34.51
6433;BME280;3249;42.690;23.260;2022-08-05T12:16:42;94477.81;;;30.24;34.97
6433;BME280;3249;42.690;23.260;2022-08-05T12:19:10;94479.47;;;30.41;34.66
6433;BME280;3249;42.690;23.260;2022-08-05T12:22:02;94481.09;;;30.45;33.24
6433;BME280;3249;42.690;23.260;2022-08-05T12:24:30;94473.69;;;30.51;32.25
6433;BME280;3249;42.690;23.260;2022-08-05T12:26:55;94476.22;;;30.71;34.83
6433;BME280;3249;42.690;23.260;2022-08-05T12:29:22;94481.81;;;30.30;36.30
6433;BME280;3249;42.690;23.260;2022-08-05T12:31:58;94477.22;;;30.55;35.40
6433;BME280;3249;42.690;23.260;2022-08-05T12:34:26;94470.78;;;30.80;32.64
6433;BME280;3249;42.690;23.260;2022-08-05T12:36:54;94478.09;;;31.10;31.90
6433;BME280;3249;42.690;23.260;2022-08-05T12:39:23;94481.22;;;31.00;32.54
6433;BME280;3249;42.690;23.260;2022-08-05T12:41:50;94477.22;;;31.06;32.60
6433;BME280;3249;42.690;23.260;2022-08-05T12:44:16;94467.00;;;30.69;33.91
6433;BME280;3249;42.690;23.260;2022-08-05T12:46:51;94458.59;;;30.15;36.36
6433;BME280;3249;42.690;23.260;2022-08-05T12:49:17;94454.34;;;29.78;37.16
6433;BME280;3249;42.690;23.260;2022-08-05T12:52:15;94444.06;;;29.77;38.29
6433;BME280;3249;42.690;23.260;2022-08-05T12:54:42;94452.22;;;29.84;38.94
6433;BME280;3249;42.690;23.260;2022-08-05T12:57:09;94454.13;;;29.95;36.86
6433;BME280;3249;42.690;23.260;2022-08-05T12:59:49;94446.78;;;29.56;38.59
6433;BME280;3249;42.690;23.260;2022-08-05T13:02:19;94447.25;;;29.82;36.89
6433;BME280;3249;42.690;23.260;2022-08-05T13:04:45;94445.06;;;29.96;36.20
6433;BME280;3249;42.690;23.260;2022-08-05T13:07:12;94443.28;;;30.12;36.18
6433;BME280;3249;42.690;23.260;2022-08-05T13:09:47;94446.28;;;29.87;35.97
6433;BME280;3249;42.690;23.260;2022-08-05T13:12:14;94429.22;;;30.00;35.75
6433;BME280;3249;42.690;23.260;2022-08-05T13:14:43;94434.41;;;30.32;35.36
6433;BME280;3249;42.690;23.260;2022-08-05T13:19:41;94434.59;;;30.51;36.22
6433;BME280;3249;42.690;23.260;2022-08-05T13:22:06;94426.00;;;30.42;35.17
6433;BME280;3249;42.690;23.260;2022-08-05T13:24:32;94426.63;;;30.51;35.56
6433;BME280;3249;42.690;23.260;2022-08-05T13:26:57;94432.69;;;30.76;33.85
6433;BME280;3249;42.690;23.260;2022-08-05T13:29:23;94433.78;;;30.75;33.78
6433;BME280;3249;42.690;23.260;2022-08-05T13:31:48;94429.16;;;30.48;35.68
6433;BME280;3249;42.690;23.260;2022-08-05T13:34:14;94430.81;;;30.52;33.97
6433;BME280;3249;42.690;23.260;2022-08-05T13:36:41;94433.28;;;30.33;34.52
6433;BME280;3249;42.690;23.260;2022-08-05T13:39:07;94428.78;;;30.34;34.14
6433;BME280;3249;42.690;23.260;2022-08-05T13:41:34;94427.44;;;30.79;32.72
6433;BME280;3249;42.690;23.260;2022-08-05T13:44:00;94425.16;;;30.93;31.94
6433;BME280;3249;42.690;23.260;2022-08-05T13:46:25;94418.03;;;30.97;31.69
6433;BME280;3249;42.690;23.260;2022-08-05T13:48:52;94412.59;;;31.21;31.89
6433;BME280;3249;42.690;23.260;2022-08-05T13:51:32;94431.91;;;31.46;32.53
6433;BME280;3249;42.690;23.260;2022-08-05T13:53:57;94408.09;;;31.37;33.25
6433;BME280;3249;42.690;23.260;2022-08-05T13:56:23;94425.72;;;31.42;31.84
6433;BME280;3249;42.690;23.260;2022-08-05T13:58:49;94425.34;;;31.00;31.87
6433;BME280;3249;42.690;23.260;2022-08-05T14:01:14;94422.44;;;30.50;33.10